sensor_id;sensor_type;location;lat;lon;timestamp;P1;durP1;ratioP1;P2;durP2;ratioP2
21430;SDS011;10876;49.038;10.608;2023-02-11T00:01:18;32.05;;;14.40;;
21430;SDS011;10876;49.038;10.608;2023-02-11T00:03:45;35.40;;;13.93;;
21430;SDS011;10876;49.038;10.608;2023-02-11T00:06:13;31.58;;;15.15;;
21430;SDS011;10876;49.038;10.608;2023-02-11T00:08:40;32.42;;;13.20;;
21430;SDS011;10876;49.038;10.608;2023-02-11T00:11:09;29.73;;;12.00;;
21430;SDS011;10876;49.038;10.608;2023-02-11T00:13:37;29.65;;;11.27;;
21430;SDS011;10876;49.038;10.608;2023-02-11T00:16:05;26.67;;;12.35;;
21430;SDS011;10876;49.038;10.608;2023-02-11T00:18:31;24.88;;;13.32;;
21430;SDS011;10876;49.038;10.608;2023-02-11T00:20:58;28.50;;;12.95;;
21430;SDS011;10876;49.038;10.608;2023-02-11T00:23:26;32.85;;;12.93;;
21430;SDS011;10876;49.038;10.608;2023-02-11T00:25:53;32.25;;;14.25;;
21430;SDS011;10876;49.038;10.608;2023-02-11T00:28:20;30.60;;;12.13;;
21430;SDS011;10876;49.038;10.608;2023-02-11T00:30:52;33.85;;;14.20;;
21430;SDS011;10876;49.038;10.608;2023-02-11T00:33:19;34.72;;;14.23;;
21430;SDS011;10876;49.038;10.608;2023-02-11T00:35:45;31.92;;;15.20;;
21430;SDS011;10876;49.038;10.608;2023-02-11T00:38:12;27.38;;;13.40;;
21430;SDS011;10876;49.038;10.608;2023-02-11T00:40:40;33.05;;;13.50;;
21430;SDS011;10876;49.038;10.608;2023-02-11T00:43:07;36.28;;;16.30;;
21430;SDS011;10876;49.038;10.608;2023-02-11T00:45:33;27.60;;;12.55;;
21430;SDS011;10876;49.038;10.608;2023-02-11T00:48:00;28.13;;;13.27;;
21430;SDS011;10876;49.038;10.608;2023-02-11T00:50:27;24.80;;;13.13;;
21430;SDS011;10876;49.038;10.608;2023-02-11T00:52:53;27.95;;;13.13;;
21430;SDS011;10876;49.038;10.608;2023-02-11T00:55:20;29.30;;;13.93;;
21430;SDS011;10876;49.038;10.608;2023-02-11T00:57:48;28.20;;;12.20;;
21430;SDS011;10876;49.038;10.608;2023-02-11T01:00:15;18.77;;;9.18;;
21430;SDS011;10876;49.038;10.608;2023-02-11T01:02:42;24.83;;;9.15;;
21430;SDS011;10876;49.038;10.608;2023-02-11T01:05:08;19.15;;;6.30;;
21430;SDS011;10876;49.038;10.608;2023-02-11T01:07:35;19.95;;;10.32;;
21430;SDS011;10876;49.038;10.608;2023-02-11T01:10:02;20.80;;;9.02;;
21430;SDS011;10876;49.038;10.608;2023-02-11T01:12:29;22.25;;;9.40;;
21430;SDS011;10876;49.038;10.608;2023-02-11T01:14:58;21.92;;;10.18;;
21430;SDS011;10876;49.038;10.608;2023-02-11T01:17:24;20.58;;;9.02;;
21430;SDS011;10876;49.038;10.608;2023-02-11T01:19:51;12.98;;;7.85;;
21430;SDS011;10876;49.038;10.608;2023-02-11T01:22:18;21.77;;;10.23;;
21430;SDS011;10876;49.038;10.608;2023-02-11T01:24:44;31.92;;;10.98;;
21430;SDS011;10876;49.038;10.608;2023-02-11T01:27:11;25.58;;;12.65;;
21430;SDS011;10876;49.038;10.608;2023-02-11T01:29:38;28.42;;;11.05;;
21430;SDS011;10876;49.038;10.608;2023-02-11T01:32:06;27.42;;;11.00;;
21430;SDS011;10876;49.038;10.608;2023-02-11T01:34:32;25.95;;;11.32;;
21430;SDS011;10876;49.038;10.608;2023-02-11T01:36:59;27.77;;;13.02;;
21430;SDS011;10876;49.038;10.608;2023-02-11T01:39:26;25.92;;;11.35;;
21430;SDS011;10876;49.038;10.608;2023-02-11T01:41:53;30.63;;;12.55;;
21430;SDS011;10876;49.038;10.608;2023-02-11T01:44:26;38.63;;;12.75;;
21430;SDS011;10876;49.038;10.608;2023-02-11T01:46:53;30.73;;;13.07;;
21430;SDS011;10876;49.038;10.608;2023-02-11T01:49:22;29.55;;;14.30;;
21430;SDS011;10876;49.038;10.608;2023-02-11T01:51:51;39.80;;;14.68;;
21430;SDS011;10876;49.038;10.608;2023-02-11T01:54:20;37.05;;;15.18;;
21430;SDS011;10876;49.038;10.608;2023-02-11T01:57:05;34.00;;;13.15;;
21430;SDS011;10876;49.038;10.608;2023-02-11T01:59:49;35.60;;;14.35;;
21430;SDS011;10876;49.038;10.608;2023-02-11T02:02:18;34.25;;;14.75;;
21430;SDS011;10876;49.038;10.608;2023-02-11T02:04:49;32.15;;;13.38;;
21430;SDS011;10876;49.038;10.608;2023-02-11T02:07:20;37.25;;;15.57;;
21430;SDS011;10876;49.038;10.608;2023-02-11T02:09:48;28.48;;;12.45;;
21430;SDS011;10876;49.038;10.608;2023-02-11T02:12:17;22.60;;;11.98;;
21430;SDS011;10876;49.038;10.608;2023-02-11T02:14:44;26.95;;;12.05;;
21430;SDS011;10876;49.038;10.608;2023-02-11T02:17:12;29.48;;;12.88;;
21430;SDS011;10876;49.038;10.608;2023-02-11T02:19:54;25.95;;;12.65;;
21430;SDS011;10876;49.038;10.608;2023-02-11T02:25:16;34.33;;;14.13;;
21430;SDS011;10876;49.038;10.608;2023-02-11T02:27:54;23.55;;;11.57;;
21430;SDS011;10876;49.038;10.608;2023-02-11T02:30:47;37.97;;;14.20;;
21430;SDS011;10876;49.038;10.608;2023-02-11T02:33:24;33.97;;;14.85;;
21430;SDS011;10876;49.038;10.608;2023-02-11T02:35:57;30.88;;;14.23;;
21430;SDS011;10876;49.038;10.608;2023-02-11T02:38:29;29.70;;;13.93;;
21430;SDS011;10876;49.038;10.608;2023-02-11T02:40:58;36.90;;;14.48;;
21430;SDS011;10876;49.038;10.608;2023-02-11T02:43:25;30.40;;;14.38;;
21430;SDS011;10876;49.038;10.608;2023-02-11T02:45:53;34.92;;;12.90;;
21430;SDS011;10876;49.038;10.608;2023-02-11T02:48:27;29.70;;;14.10;;
21430;SDS011;10876;49.038;10.608;2023-02-11T02:50:57;31.48;;;15.45;;
21430;SDS011;10876;49.038;10.608;2023-02-11T02:53:30;25.17;;;12.15;;
21430;SDS011;10876;49.038;10.608;2023-02-11T02:55:59;25.70;;;11.52;;
21430;SDS011;10876;49.038;10.608;2023-02-11T02:58:39;26.25;;;13.07;;
21430;SDS011;10876;49.038;10.608;2023-02-11T03:01:11;15.07;;;8.27;;
21430;SDS011;10876;49.038;10.608;2023-02-11T03:03:45;27.65;;;11.82;;
21430;SDS011;10876;49.038;10.608;2023-02-11T03:06:16;35.60;;;15.05;;
21430;SDS011;10876;49.038;10.608;2023-02-11T03:08:45;37.05;;;14.02;;
21430;SDS011;10876;49.038;10.608;2023-02-11T03:11:13;25.00;;;10.95;;
21430;SDS011;10876;49.038;10.608;2023-02-11T03:13:41;27.48;;;12.15;;
21430;SDS011;10876;49.038;10.608;2023-02-11T03:16:10;38.42;;;15.27;;
21430;SDS011;10876;49.038;10.608;2023-02-11T03:18:38;26.70;;;14.73;;
21430;SDS011;10876;49.038;10.608;2023-02-11T03:21:06;29.77;;;14.43;;
21430;SDS011;10876;49.038;10.608;2023-02-11T03:23:34;36.95;;;14.27;;
21430;SDS011;10876;49.038;10.608;2023-02-11T03:26:03;38.03;;;15.63;;
21430;SDS011;10876;49.038;10.608;2023-02-11T03:28:31;37.58;;;14.93;;
21430;SDS011;10876;49.038;10.608;2023-02-11T03:31:02;41.95;;;15.18;;
21430;SDS011;10876;49.038;10.608;2023-02-11T03:33:34;34.83;;;15.05;;
21430;SDS011;10876;49.038;10.608;2023-02-11T03:36:02;39.83;;;15.32;;
21430;SDS011;10876;49.038;10.608;2023-02-11T03:38:32;31.17;;;13.48;;
21430;SDS011;10876;49.038;10.608;2023-02-11T03:41:00;32.03;;;15.00;;
21430;SDS011;10876;49.038;10.608;2023-02-11T03:43:29;36.97;;;16.33;;
21430;SDS011;10876;49.038;10.608;2023-02-11T03:45:57;31.23;;;13.80;;
21430;SDS011;10876;49.038;10.608;2023-02-11T03:48:24;35.33;;;13.93;;
21430;SDS011;10876;49.038;10.608;2023-02-11T03:50:51;30.40;;;13.65;;
21430;SDS011;10876;49.038;10.608;2023-02-11T03:53:19;26.50;;;13.43;;
21430;SDS011;10876;49.038;10.608;2023-02-11T03:55:49;31.27;;;14.10;;
21430;SDS011;10876;49.038;10.608;2023-02-11T03:58:16;39.78;;;17.13;;
21430;SDS011;10876;49.038;10.608;2023-02-11T04:00:43;41.00;;;16.92;;
21430;SDS011;10876;49.038;10.608;2023-02-11T04:03:10;37.00;;;16.27;;
21430;SDS011;10876;49.038;10.608;2023-02-11T04:05:37;34.58;;;15.38;;
21430;SDS011;10876;49.038;10.608;2023-02-11T04:08:07;43.53;;;16.65;;
21430;SDS011;10876;49.038;10.608;2023-02-11T04:10:34;40.95;;;15.82;;
21430;SDS011;10876;49.038;10.608;2023-02-11T04:13:02;39.10;;;16.02;;
21430;SDS011;10876;49.038;10.608;2023-02-11T04:15:29;38.70;;;17.63;;
21430;SDS011;10876;49.038;10.608;2023-02-11T04:17:55;38.88;;;16.88;;
21430;SDS011;10876;49.038;10.608;2023-02-11T04:20:22;38.80;;;16.65;;
21430;SDS011;10876;49.038;10.608;2023-02-11T04:22:49;33.63;;;15.55;;
21430;SDS011;10876;49.038;10.608;2023-02-11T04:25:16;37.63;;;14.23;;
21430;SDS011;10876;49.038;10.608;2023-02-11T04:27:42;43.80;;;17.70;;
21430;SDS011;10876;49.038;10.608;2023-02-11T04:30:11;38.10;;;16.90;;
21430;SDS011;10876;49.038;10.608;2023-02-11T04:32:38;43.10;;;16.83;;
21430;SDS011;10876;49.038;10.608;2023-02-11T04:35:05;45.42;;;19.20;;
21430;SDS011;10876;49.038;10.608;2023-02-11T04:37:32;47.35;;;19.38;;
21430;SDS011;10876;49.038;10.608;2023-02-11T04:39:58;36.92;;;17.17;;
21430;SDS011;10876;49.038;10.608;2023-02-11T04:42:25;38.65;;;17.02;;
21430;SDS011;10876;49.038;10.608;2023-02-11T04:44:52;46.53;;;17.13;;
21430;SDS011;10876;49.038;10.608;2023-02-11T04:47:20;44.47;;;17.52;;
21430;SDS011;10876;49.038;10.608;2023-02-11T04:49:46;38.10;;;16.35;;
21430;SDS011;10876;49.038;10.608;2023-02-11T04:52:13;38.47;;;15.93;;
21430;SDS011;10876;49.038;10.608;2023-02-11T04:54:39;35.40;;;13.98;;
21430;SDS011;10876;49.038;10.608;2023-02-11T04:57:06;36.03;;;14.25;;
21430;SDS011;10876;49.038;10.608;2023-02-11T04:59:33;28.77;;;14.65;;
21430;SDS011;10876;49.038;10.608;2023-02-11T05:01:59;23.67;;;11.80;;
21430;SDS011;10876;49.038;10.608;2023-02-11T05:04:27;31.77;;;14.10;;
21430;SDS011;10876;49.038;10.608;2023-02-11T05:06:54;35.75;;;16.10;;
21430;SDS011;10876;49.038;10.608;2023-02-11T05:09:21;38.30;;;16.30;;
21430;SDS011;10876;49.038;10.608;2023-02-11T05:11:48;32.33;;;15.25;;
21430;SDS011;10876;49.038;10.608;2023-02-11T05:14:15;32.83;;;13.57;;
21430;SDS011;10876;49.038;10.608;2023-02-11T05:16:41;39.50;;;16.33;;
21430;SDS011;10876;49.038;10.608;2023-02-11T05:19:08;33.70;;;15.40;;
21430;SDS011;10876;49.038;10.608;2023-02-11T05:21:36;40.80;;;16.65;;
21430;SDS011;10876;49.038;10.608;2023-02-11T05:24:03;29.98;;;14.07;;
21430;SDS011;10876;49.038;10.608;2023-02-11T05:26:30;26.85;;;13.50;;
21430;SDS011;10876;49.038;10.608;2023-02-11T05:28:57;33.38;;;14.00;;
21430;SDS011;10876;49.038;10.608;2023-02-11T05:31:24;37.15;;;16.50;;
21430;SDS011;10876;49.038;10.608;2023-02-11T05:33:50;39.15;;;16.65;;
21430;SDS011;10876;49.038;10.608;2023-02-11T05:36:17;32.67;;;14.75;;
21430;SDS011;10876;49.038;10.608;2023-02-11T05:38:45;35.97;;;15.98;;
21430;SDS011;10876;49.038;10.608;2023-02-11T05:41:12;34.50;;;15.65;;
21430;SDS011;10876;49.038;10.608;2023-02-11T05:43:38;32.10;;;15.13;;
21430;SDS011;10876;49.038;10.608;2023-02-11T05:46:05;41.58;;;16.58;;
21430;SDS011;10876;49.038;10.608;2023-02-11T05:48:32;40.63;;;16.45;;
21430;SDS011;10876;49.038;10.608;2023-02-11T05:50:59;35.65;;;16.27;;
21430;SDS011;10876;49.038;10.608;2023-02-11T05:53:25;28.48;;;12.57;;
21430;SDS011;10876;49.038;10.608;2023-02-11T05:55:53;37.67;;;14.13;;
21430;SDS011;10876;49.038;10.608;2023-02-11T05:58:20;35.35;;;14.35;;
21430;SDS011;10876;49.038;10.608;2023-02-11T06:00:46;34.85;;;14.10;;
21430;SDS011;10876;49.038;10.608;2023-02-11T06:03:13;45.83;;;17.77;;
21430;SDS011;10876;49.038;10.608;2023-02-11T06:05:41;40.58;;;17.08;;
21430;SDS011;10876;49.038;10.608;2023-02-11T06:08:07;38.28;;;15.60;;
21430;SDS011;10876;49.038;10.608;2023-02-11T06:10:34;36.28;;;15.75;;
21430;SDS011;10876;49.038;10.608;2023-02-11T06:13:02;35.22;;;16.00;;
21430;SDS011;10876;49.038;10.608;2023-02-11T06:15:29;44.40;;;16.25;;
21430;SDS011;10876;49.038;10.608;2023-02-11T06:17:56;38.35;;;16.73;;
21430;SDS011;10876;49.038;10.608;2023-02-11T06:20:22;37.05;;;16.38;;
21430;SDS011;10876;49.038;10.608;2023-02-11T06:22:49;29.52;;;14.18;;
21430;SDS011;10876;49.038;10.608;2023-02-11T06:25:16;37.92;;;16.52;;
21430;SDS011;10876;49.038;10.608;2023-02-11T06:27:42;34.58;;;16.27;;
21430;SDS011;10876;49.038;10.608;2023-02-11T06:30:11;38.58;;;15.23;;
21430;SDS011;10876;49.038;10.608;2023-02-11T06:32:38;34.33;;;15.40;;
21430;SDS011;10876;49.038;10.608;2023-02-11T06:35:05;38.83;;;15.35;;
21430;SDS011;10876;49.038;10.608;2023-02-11T06:37:32;39.20;;;16.15;;
21430;SDS011;10876;49.038;10.608;2023-02-11T06:39:59;39.05;;;15.32;;
21430;SDS011;10876;49.038;10.608;2023-02-11T06:42:25;34.22;;;15.75;;
21430;SDS011;10876;49.038;10.608;2023-02-11T06:44:52;27.98;;;12.98;;
21430;SDS011;10876;49.038;10.608;2023-02-11T06:47:20;36.05;;;14.25;;
21430;SDS011;10876;49.038;10.608;2023-02-11T06:49:47;39.60;;;14.45;;
21430;SDS011;10876;49.038;10.608;2023-02-11T06:52:13;34.33;;;15.85;;
21430;SDS011;10876;49.038;10.608;2023-02-11T06:54:40;39.20;;;15.77;;
21430;SDS011;10876;49.038;10.608;2023-02-11T06:57:07;38.58;;;16.23;;
21430;SDS011;10876;49.038;10.608;2023-02-11T06:59:33;42.03;;;17.05;;
21430;SDS011;10876;49.038;10.608;2023-02-11T07:02:00;42.85;;;16.10;;
21430;SDS011;10876;49.038;10.608;2023-02-11T07:04:28;33.80;;;15.40;;
21430;SDS011;10876;49.038;10.608;2023-02-11T07:06:55;35.53;;;16.50;;
21430;SDS011;10876;49.038;10.608;2023-02-11T07:09:21;35.03;;;15.23;;
21430;SDS011;10876;49.038;10.608;2023-02-11T07:11:48;33.22;;;14.45;;
21430;SDS011;10876;49.038;10.608;2023-02-11T07:14:14;38.65;;;14.75;;
21430;SDS011;10876;49.038;10.608;2023-02-11T07:16:41;40.83;;;16.52;;
21430;SDS011;10876;49.038;10.608;2023-02-11T07:19:08;32.75;;;15.65;;
21430;SDS011;10876;49.038;10.608;2023-02-11T07:21:36;32.72;;;15.00;;
21430;SDS011;10876;49.038;10.608;2023-02-11T07:24:05;22.35;;;11.40;;
21430;SDS011;10876;49.038;10.608;2023-02-11T07:26:31;31.38;;;14.23;;
21430;SDS011;10876;49.038;10.608;2023-02-11T07:28:58;20.60;;;10.30;;
21430;SDS011;10876;49.038;10.608;2023-02-11T07:31:25;32.03;;;12.65;;
21430;SDS011;10876;49.038;10.608;2023-02-11T07:33:53;18.42;;;8.15;;
21430;SDS011;10876;49.038;10.608;2023-02-11T07:36:21;30.85;;;14.27;;
21430;SDS011;10876;49.038;10.608;2023-02-11T07:38:49;24.30;;;11.98;;
21430;SDS011;10876;49.038;10.608;2023-02-11T07:41:17;18.88;;;9.77;;
21430;SDS011;10876;49.038;10.608;2023-02-11T07:43:44;26.42;;;10.60;;
21430;SDS011;10876;49.038;10.608;2023-02-11T07:46:11;32.00;;;12.52;;
21430;SDS011;10876;49.038;10.608;2023-02-11T07:48:39;33.13;;;14.90;;
21430;SDS011;10876;49.038;10.608;2023-02-11T07:51:06;29.05;;;13.20;;
21430;SDS011;10876;49.038;10.608;2023-02-11T07:53:33;32.05;;;15.10;;
21430;SDS011;10876;49.038;10.608;2023-02-11T07:56:02;34.10;;;14.95;;
21430;SDS011;10876;49.038;10.608;2023-02-11T07:58:29;31.50;;;14.20;;
21430;SDS011;10876;49.038;10.608;2023-02-11T08:00:59;31.90;;;13.40;;
21430;SDS011;10876;49.038;10.608;2023-02-11T08:03:25;30.27;;;13.45;;
21430;SDS011;10876;49.038;10.608;2023-02-11T08:05:52;30.70;;;12.07;;
21430;SDS011;10876;49.038;10.608;2023-02-11T08:08:19;29.48;;;12.98;;
21430;SDS011;10876;49.038;10.608;2023-02-11T08:10:45;29.60;;;14.90;;
21430;SDS011;10876;49.038;10.608;2023-02-11T08:13:14;31.77;;;13.52;;
21430;SDS011;10876;49.038;10.608;2023-02-11T08:15:41;34.45;;;13.52;;
21430;SDS011;10876;49.038;10.608;2023-02-11T08:18:07;38.90;;;15.45;;
21430;SDS011;10876;49.038;10.608;2023-02-11T08:20:34;34.53;;;13.52;;
21430;SDS011;10876;49.038;10.608;2023-02-11T08:23:01;31.75;;;14.75;;
21430;SDS011;10876;49.038;10.608;2023-02-11T08:25:28;30.30;;;12.68;;
21430;SDS011;10876;49.038;10.608;2023-02-11T08:27:55;28.73;;;11.63;;
21430;SDS011;10876;49.038;10.608;2023-02-11T08:30:23;27.45;;;12.82;;
21430;SDS011;10876;49.038;10.608;2023-02-11T08:32:52;35.65;;;14.45;;
21430;SDS011;10876;49.038;10.608;2023-02-11T08:35:21;36.30;;;14.38;;
21430;SDS011;10876;49.038;10.608;2023-02-11T08:37:48;40.10;;;15.35;;
21430;SDS011;10876;49.038;10.608;2023-02-11T08:40:14;31.55;;;13.95;;
21430;SDS011;10876;49.038;10.608;2023-02-11T08:42:41;33.10;;;13.63;;
21430;SDS011;10876;49.038;10.608;2023-02-11T08:45:09;28.15;;;12.68;;
21430;SDS011;10876;49.038;10.608;2023-02-11T08:47:38;35.72;;;12.55;;
21430;SDS011;10876;49.038;10.608;2023-02-11T08:50:05;26.23;;;13.02;;
21430;SDS011;10876;49.038;10.608;2023-02-11T08:52:32;25.65;;;12.30;;
21430;SDS011;10876;49.038;10.608;2023-02-11T08:55:00;28.85;;;11.98;;
21430;SDS011;10876;49.038;10.608;2023-02-11T08:57:26;25.40;;;10.88;;
21430;SDS011;10876;49.038;10.608;2023-02-11T08:59:53;24.83;;;10.63;;
21430;SDS011;10876;49.038;10.608;2023-02-11T09:02:20;30.35;;;12.95;;
21430;SDS011;10876;49.038;10.608;2023-02-11T09:04:48;23.92;;;10.95;;
21430;SDS011;10876;49.038;10.608;2023-02-11T09:07:15;32.47;;;12.38;;
21430;SDS011;10876;49.038;10.608;2023-02-11T09:09:42;26.35;;;12.80;;
21430;SDS011;10876;49.038;10.608;2023-02-11T09:12:09;27.67;;;11.65;;
21430;SDS011;10876;49.038;10.608;2023-02-11T09:14:35;28.02;;;12.50;;
21430;SDS011;10876;49.038;10.608;2023-02-11T09:17:02;31.73;;;12.50;;
21430;SDS011;10876;49.038;10.608;2023-02-11T09:19:29;28.90;;;12.25;;
21430;SDS011;10876;49.038;10.608;2023-02-11T09:21:57;28.17;;;11.38;;
21430;SDS011;10876;49.038;10.608;2023-02-11T09:24:24;26.30;;;11.80;;
21430;SDS011;10876;49.038;10.608;2023-02-11T09:26:51;30.67;;;13.85;;
21430;SDS011;10876;49.038;10.608;2023-02-11T09:29:18;30.85;;;13.48;;
21430;SDS011;10876;49.038;10.608;2023-02-11T09:31:44;27.35;;;12.43;;
21430;SDS011;10876;49.038;10.608;2023-02-11T09:34:11;30.65;;;12.93;;
21430;SDS011;10876;49.038;10.608;2023-02-11T09:36:39;26.73;;;12.27;;
21430;SDS011;10876;49.038;10.608;2023-02-11T09:39:10;28.75;;;11.65;;
21430;SDS011;10876;49.038;10.608;2023-02-11T09:41:41;25.95;;;11.38;;
21430;SDS011;10876;49.038;10.608;2023-02-11T09:44:16;26.75;;;12.45;;
21430;SDS011;10876;49.038;10.608;2023-02-11T09:46:52;27.20;;;11.63;;
21430;SDS011;10876;49.038;10.608;2023-02-11T09:49:21;31.83;;;13.25;;
21430;SDS011;10876;49.038;10.608;2023-02-11T09:51:48;32.45;;;12.18;;
21430;SDS011;10876;49.038;10.608;2023-02-11T09:54:20;25.90;;;12.43;;
21430;SDS011;10876;49.038;10.608;2023-02-11T09:56:49;21.58;;;11.30;;
21430;SDS011;10876;49.038;10.608;2023-02-11T09:59:15;24.98;;;12.10;;
21430;SDS011;10876;49.038;10.608;2023-02-11T10:01:44;21.67;;;9.65;;
21430;SDS011;10876;49.038;10.608;2023-02-11T10:04:13;14.20;;;7.97;;
21430;SDS011;10876;49.038;10.608;2023-02-11T10:06:44;17.75;;;9.55;;
21430;SDS011;10876;49.038;10.608;2023-02-11T10:12:00;17.15;;;8.45;;
21430;SDS011;10876;49.038;10.608;2023-02-11T10:14:36;18.38;;;7.45;;
21430;SDS011;10876;49.038;10.608;2023-02-11T10:17:07;14.23;;;8.18;;
21430;SDS011;10876;49.038;10.608;2023-02-11T10:19:42;17.38;;;9.50;;
21430;SDS011;10876;49.038;10.608;2023-02-11T10:22:13;16.20;;;9.00;;
21430;SDS011;10876;49.038;10.608;2023-02-11T10:24:47;16.73;;;8.50;;
21430;SDS011;10876;49.038;10.608;2023-02-11T10:27:18;18.17;;;8.40;;
21430;SDS011;10876;49.038;10.608;2023-02-11T10:29:46;14.10;;;7.65;;
21430;SDS011;10876;49.038;10.608;2023-02-11T10:32:19;16.00;;;8.10;;
21430;SDS011;10876;49.038;10.608;2023-02-11T10:34:49;16.25;;;8.45;;
21430;SDS011;10876;49.038;10.608;2023-02-11T10:37:17;15.57;;;8.32;;
21430;SDS011;10876;49.038;10.608;2023-02-11T10:39:44;16.38;;;7.75;;
21430;SDS011;10876;49.038;10.608;2023-02-11T10:42:11;18.70;;;7.93;;
21430;SDS011;10876;49.038;10.608;2023-02-11T10:44:41;17.42;;;8.50;;
21430;SDS011;10876;49.038;10.608;2023-02-11T10:47:11;17.70;;;8.52;;
21430;SDS011;10876;49.038;10.608;2023-02-11T10:49:39;16.02;;;8.68;;
21430;SDS011;10876;49.038;10.608;2023-02-11T10:52:20;16.25;;;8.20;;
21430;SDS011;10876;49.038;10.608;2023-02-11T10:54:54;14.95;;;8.52;;
21430;SDS011;10876;49.038;10.608;2023-02-11T10:57:25;17.77;;;8.57;;
21430;SDS011;10876;49.038;10.608;2023-02-11T10:59:59;16.83;;;8.82;;
21430;SDS011;10876;49.038;10.608;2023-02-11T11:02:28;15.82;;;7.85;;
21430;SDS011;10876;49.038;10.608;2023-02-11T11:05:00;17.88;;;8.07;;
21430;SDS011;10876;49.038;10.608;2023-02-11T11:07:28;16.60;;;8.60;;
21430;SDS011;10876;49.038;10.608;2023-02-11T11:09:56;14.55;;;8.07;;
21430;SDS011;10876;49.038;10.608;2023-02-11T11:12:28;16.23;;;8.43;;
21430;SDS011;10876;49.038;10.608;2023-02-11T11:14:57;15.98;;;8.45;;
21430;SDS011;10876;49.038;10.608;2023-02-11T11:17:25;15.60;;;8.35;;
21430;SDS011;10876;49.038;10.608;2023-02-11T11:19:55;21.83;;;10.00;;
21430;SDS011;10876;49.038;10.608;2023-02-11T11:22:22;19.88;;;8.65;;
21430;SDS011;10876;49.038;10.608;2023-02-11T11:24:49;15.63;;;8.75;;
21430;SDS011;10876;49.038;10.608;2023-02-11T11:27:20;16.80;;;8.55;;
21430;SDS011;10876;49.038;10.608;2023-02-11T11:29:47;18.10;;;9.52;;
21430;SDS011;10876;49.038;10.608;2023-02-11T11:32:17;16.45;;;8.05;;
21430;SDS011;10876;49.038;10.608;2023-02-11T11:34:47;15.13;;;7.80;;
21430;SDS011;10876;49.038;10.608;2023-02-11T11:37:18;16.50;;;8.20;;
21430;SDS011;10876;49.038;10.608;2023-02-11T11:39:47;15.15;;;8.05;;
21430;SDS011;10876;49.038;10.608;2023-02-11T11:42:24;16.60;;;8.77;;
21430;SDS011;10876;49.038;10.608;2023-02-11T11:44:55;16.73;;;8.38;;
21430;SDS011;10876;49.038;10.608;2023-02-11T11:47:26;14.02;;;7.68;;
21430;SDS011;10876;49.038;10.608;2023-02-11T11:50:02;17.08;;;8.10;;
21430;SDS011;10876;49.038;10.608;2023-02-11T11:52:36;16.27;;;7.75;;
21430;SDS011;10876;49.038;10.608;2023-02-11T11:55:08;14.48;;;7.68;;
21430;SDS011;10876;49.038;10.608;2023-02-11T11:57:39;14.68;;;7.35;;
21430;SDS011;10876;49.038;10.608;2023-02-11T12:00:19;14.82;;;7.50;;
21430;SDS011;10876;49.038;10.608;2023-02-11T12:05:34;16.30;;;7.70;;
21430;SDS011;10876;49.038;10.608;2023-02-11T12:08:07;18.90;;;7.63;;
21430;SDS011;10876;49.038;10.608;2023-02-11T12:13:24;15.15;;;8.13;;
21430;SDS011;10876;49.038;10.608;2023-02-11T12:15:55;14.32;;;7.25;;
21430;SDS011;10876;49.038;10.608;2023-02-11T12:18:27;14.20;;;7.78;;
21430;SDS011;10876;49.038;10.608;2023-02-11T12:21:05;15.80;;;7.53;;
21430;SDS011;10876;49.038;10.608;2023-02-11T12:23:40;15.77;;;8.57;;
21430;SDS011;10876;49.038;10.608;2023-02-11T12:26:12;17.23;;;8.65;;
21430;SDS011;10876;49.038;10.608;2023-02-11T12:28:41;15.73;;;8.02;;
21430;SDS011;10876;49.038;10.608;2023-02-11T12:31:13;14.93;;;7.95;;
21430;SDS011;10876;49.038;10.608;2023-02-11T12:33:48;15.98;;;7.90;;
21430;SDS011;10876;49.038;10.608;2023-02-11T12:36:24;16.92;;;7.50;;
21430;SDS011;10876;49.038;10.608;2023-02-11T12:38:56;17.55;;;9.25;;
21430;SDS011;10876;49.038;10.608;2023-02-11T12:41:28;19.17;;;8.60;;
21430;SDS011;10876;49.038;10.608;2023-02-11T12:44:16;16.65;;;8.50;;
21430;SDS011;10876;49.038;10.608;2023-02-11T12:46:47;17.23;;;8.57;;
21430;SDS011;10876;49.038;10.608;2023-02-11T12:49:25;17.63;;;8.18;;
21430;SDS011;10876;49.038;10.608;2023-02-11T12:52:09;15.75;;;7.97;;
21430;SDS011;10876;49.038;10.608;2023-02-11T12:54:39;16.80;;;8.52;;
21430;SDS011;10876;49.038;10.608;2023-02-11T12:57:10;15.65;;;8.15;;
21430;SDS011;10876;49.038;10.608;2023-02-11T12:59:42;15.73;;;8.00;;
21430;SDS011;10876;49.038;10.608;2023-02-11T13:02:12;16.98;;;8.45;;
21430;SDS011;10876;49.038;10.608;2023-02-11T13:04:42;16.30;;;7.85;;
21430;SDS011;10876;49.038;10.608;2023-02-11T13:07:13;17.75;;;8.13;;
21430;SDS011;10876;49.038;10.608;2023-02-11T13:09:42;18.92;;;9.32;;
21430;SDS011;10876;49.038;10.608;2023-02-11T13:12:11;21.13;;;9.55;;
21430;SDS011;10876;49.038;10.608;2023-02-11T13:14:55;19.02;;;9.48;;
21430;SDS011;10876;49.038;10.608;2023-02-11T13:17:27;17.02;;;8.35;;
21430;SDS011;10876;49.038;10.608;2023-02-11T13:19:57;18.38;;;9.55;;
21430;SDS011;10876;49.038;10.608;2023-02-11T13:22:27;16.20;;;9.02;;
21430;SDS011;10876;49.038;10.608;2023-02-11T13:24:58;15.23;;;8.40;;
21430;SDS011;10876;49.038;10.608;2023-02-11T13:27:29;14.00;;;7.65;;
21430;SDS011;10876;49.038;10.608;2023-02-11T13:35:25;18.70;;;9.52;;
21430;SDS011;10876;49.038;10.608;2023-02-11T13:37:55;17.17;;;8.57;;
21430;SDS011;10876;49.038;10.608;2023-02-11T13:40:23;18.00;;;9.40;;
21430;SDS011;10876;49.038;10.608;2023-02-11T13:42:55;21.92;;;9.65;;
21430;SDS011;10876;49.038;10.608;2023-02-11T13:45:26;20.13;;;9.80;;
21430;SDS011;10876;49.038;10.608;2023-02-11T13:47:55;18.88;;;8.93;;
21430;SDS011;10876;49.038;10.608;2023-02-11T13:50:22;17.73;;;9.80;;
21430;SDS011;10876;49.038;10.608;2023-02-11T13:52:56;20.42;;;9.13;;
21430;SDS011;10876;49.038;10.608;2023-02-11T13:55:23;20.60;;;9.90;;
21430;SDS011;10876;49.038;10.608;2023-02-11T14:03:20;19.65;;;8.68;;
21430;SDS011;10876;49.038;10.608;2023-02-11T14:06:12;23.20;;;10.63;;
21430;SDS011;10876;49.038;10.608;2023-02-11T14:09:06;20.42;;;10.48;;
21430;SDS011;10876;49.038;10.608;2023-02-11T14:11:47;22.77;;;11.50;;
21430;SDS011;10876;49.038;10.608;2023-02-11T14:14:15;22.10;;;10.43;;
21430;SDS011;10876;49.038;10.608;2023-02-11T14:19:32;23.30;;;11.13;;
21430;SDS011;10876;49.038;10.608;2023-02-11T14:22:00;24.67;;;11.55;;
21430;SDS011;10876;49.038;10.608;2023-02-11T14:24:46;27.67;;;12.80;;
21430;SDS011;10876;49.038;10.608;2023-02-11T14:27:14;28.38;;;13.65;;
21430;SDS011;10876;49.038;10.608;2023-02-11T14:29:54;30.30;;;15.93;;
21430;SDS011;10876;49.038;10.608;2023-02-11T14:32:28;35.65;;;16.25;;
21430;SDS011;10876;49.038;10.608;2023-02-11T14:34:59;19.65;;;11.10;;
21430;SDS011;10876;49.038;10.608;2023-02-11T14:37:33;22.73;;;11.10;;
21430;SDS011;10876;49.038;10.608;2023-02-11T14:40:13;20.75;;;11.35;;
21430;SDS011;10876;49.038;10.608;2023-02-11T14:42:41;23.13;;;11.75;;
21430;SDS011;10876;49.038;10.608;2023-02-11T14:45:09;30.08;;;13.10;;
21430;SDS011;10876;49.038;10.608;2023-02-11T14:47:39;30.95;;;13.82;;
21430;SDS011;10876;49.038;10.608;2023-02-11T14:50:10;26.85;;;13.40;;